Time;durP1;ratioP1;P1;durP2;ratioP2;P2;SDS_P1;SDS_P2;PMS_P1;PMS_P2;Temp;Humidity;BMP_temperature;BMP_pressure;BME280_temperature;BME280_humidity;BME280_pressure;Samples;Min_cycle;Max_cycle;Signal;HPM_P1;HPM_P2
2022/01/01 00:00:46;;;;;;;327.53;184.63;;;;;;;;;;5011259;28;20427;-82
2022/01/01 00:03:12;;;;;;;311.73;180.23;;;;;;;;;;5026413;28;20437;-83
2022/01/01 00:05:38;;;;;;;324.27;183.17;;;;;;;;;;5028189;28;20437;-82
2022/01/01 00:08:06;;;;;;;297.00;174.20;;;;;;;;;;5012504;28;20846;-82
2022/01/01 00:10:32;;;;;;;349.43;195.60;;;;;;;;;;5028920;28;21345;-82
2022/01/01 00:12:58;;;;;;;243.23;150.97;;;;;;;;;;5010533;28;20469;-82
2022/01/01 00:15:25;;;;;;;324.80;178.13;;;;;;;;;;5027710;28;20435;-82
2022/01/01 00:17:51;;;;;;;343.70;179.50;;;;;;;;;;5025993;28;20427;-82
2022/01/01 00:20:17;;;;;;;286.73;159.50;;;;;;;;;;5013833;28;20524;-82
2022/01/01 00:22:43;;;;;;;265.73;152.23;;;;;;;;;;5010560;28;20426;-82
2022/01/01 00:25:10;;;;;;;285.30;160.83;;;;;;;;;;5011430;28;21147;-82
2022/01/01 00:27:36;;;;;;;269.87;152.80;;;;;;;;;;5012188;28;20426;-82
2022/01/01 00:30:06;;;;;;;235.17;142.17;;;;;;;;;;5014415;28;20438;-82
2022/01/01 00:32:32;;;;;;;283.30;159.23;;;;;;;;;;5011165;28;21270;-82
2022/01/01 00:34:58;;;;;;;279.83;154.67;;;;;;;;;;5027845;28;20439;-82
2022/01/01 00:37:24;;;;;;;278.73;157.40;;;;;;;;;;5012119;28;20426;-83
2022/01/01 00:39:50;;;;;;;259.27;148.47;;;;;;;;;;5013352;28;21361;-81
2022/01/01 00:42:16;;;;;;;291.50;159.73;;;;;;;;;;5022427;28;20422;-82
2022/01/01 00:44:43;;;;;;;364.07;186.00;;;;;;;;;;5010667;28;20465;-83
2022/01/01 00:47:09;;;;;;;307.50;167.20;;;;;;;;;;5027419;28;20477;-83
2022/01/01 00:49:35;;;;;;;264.37;149.83;;;;;;;;;;5024071;28;22214;-82
2022/01/01 00:52:01;;;;;;;241.27;142.90;;;;;;;;;;5032200;28;20607;-82
2022/01/01 00:54:27;;;;;;;232.00;136.53;;;;;;;;;;5028844;28;20437;-82
2022/01/01 00:56:53;;;;;;;230.73;137.67;;;;;;;;;;5027672;28;20441;-79
2022/01/01 00:59:20;;;;;;;245.10;144.97;;;;;;;;;;5010566;28;20434;-79
2022/01/01 01:01:47;;;;;;;244.20;143.73;;;;;;;;;;5029523;28;20453;-79
2022/01/01 01:04:13;;;;;;;270.37;157.17;;;;;;;;;;5029397;28;20418;-80
2022/01/01 01:06:39;;;;;;;296.67;166.10;;;;;;;;;;5026039;28;20866;-79
2022/01/01 01:09:05;;;;;;;374.20;193.50;;;;;;;;;;5011297;28;20431;-79
2022/01/01 01:11:31;;;;;;;290.70;163.53;;;;;;;;;;5028120;28;20591;-79
2022/01/01 01:13:59;;;;;;;384.17;199.53;;;;;;;;;;5023814;28;20426;-79
2022/01/01 01:16:26;;;;;;;311.53;172.33;;;;;;;;;;5011044;28;20433;-79
2022/01/01 01:18:54;;;;;;;294.77;161.07;;;;;;;;;;5017855;28;20461;-79
2022/01/01 01:21:24;;;;;;;304.50;169.43;;;;;;;;;;5011054;28;20513;-79
2022/01/01 01:23:54;;;;;;;346.23;186.67;;;;;;;;;;5011895;28;20445;-79
2022/01/01 01:26:20;;;;;;;395.13;202.90;;;;;;;;;;5031642;28;20534;-79
2022/01/01 01:28:49;;;;;;;345.27;185.63;;;;;;;;;;5030046;28;20434;-79
2022/01/01 01:31:16;;;;;;;287.30;160.83;;;;;;;;;;5027969;28;21289;-79
2022/01/01 01:33:43;;;;;;;237.97;140.33;;;;;;;;;;5031413;28;20434;-79
2022/01/01 01:36:09;;;;;;;362.80;182.90;;;;;;;;;;5027627;28;20564;-79
2022/01/01 01:38:36;;;;;;;250.73;143.80;;;;;;;;;;5013993;28;20434;-79
2022/01/01 01:41:06;;;;;;;231.57;136.33;;;;;;;;;;5029694;28;20422;-78
2022/01/01 01:43:33;;;;;;;244.83;142.00;;;;;;;;;;5033097;28;20418;-79
2022/01/01 01:46:04;;;;;;;234.13;138.53;;;;;;;;;;5012945;28;20434;-79
2022/01/01 01:48:30;;;;;;;222.77;130.97;;;;;;;;;;5013366;28;21400;-79
2022/01/01 01:50:57;;;;;;;221.13;133.60;;;;;;;;;;5031825;28;20456;-79
2022/01/01 01:53:23;;;;;;;222.40;130.17;;;;;;;;;;5031096;28;20422;-79
2022/01/01 01:55:49;;;;;;;180.33;107.33;;;;;;;;;;5015373;28;20418;-79
2022/01/01 01:58:17;;;;;;;157.77;96.57;;;;;;;;;;5013573;28;20410;-79
2022/01/01 02:03:27;;;;;;;113.47;73.07;;;;;;;;;;5035563;28;20483;-79
2022/01/01 02:05:53;;;;;;;139.60;81.00;;;;;;;;;;5014132;28;20443;-78
2022/01/01 02:08:20;;;;;;;103.93;66.00;;;;;;;;;;5031910;28;20537;-79
2022/01/01 02:10:51;;;;;;;150.60;88.70;;;;;;;;;;5035187;28;21032;-78
2022/01/01 02:13:29;;;;;;;143.40;91.37;;;;;;;;;;5033425;28;21149;-78
2022/01/01 02:18:22;;;;;;;130.00;80.53;;;;;;;;;;5035464;28;21034;-79
2022/01/01 02:20:51;;;;;;;139.97;85.40;;;;;;;;;;5033689;28;20451;-79
2022/01/01 02:23:18;;;;;;;175.17;102.37;;;;;;;;;;5034636;28;21279;-79
2022/01/01 02:25:45;;;;;;;155.93;95.67;;;;;;;;;;5033612;28;20575;-79
2022/01/01 02:28:12;;;;;;;154.53;95.00;;;;;;;;;;5033206;28;20430;-79
2022/01/01 02:30:38;;;;;;;179.73;104.97;;;;;;;;;;5033411;28;20430;-79
2022/01/01 02:33:04;;;;;;;151.93;95.40;;;;;;;;;;5034717;28;20454;-79
2022/01/01 02:35:30;;;;;;;158.00;94.67;;;;;;;;;;5017262;28;20410;-79
2022/01/01 02:37:56;;;;;;;148.67;92.80;;;;;;;;;;5031249;28;20414;-78
2022/01/01 02:40:22;;;;;;;162.97;97.37;;;;;;;;;;5015568;28;21093;-79
2022/01/01 02:42:50;;;;;;;145.93;88.97;;;;;;;;;;5013171;28;20426;-78
2022/01/01 02:45:17;;;;;;;182.87;101.23;;;;;;;;;;5032359;28;20441;-79
2022/01/01 02:47:43;;;;;;;128.83;76.97;;;;;;;;;;5032410;28;21320;-78
2022/01/01 02:50:09;;;;;;;128.97;77.43;;;;;;;;;;5034538;28;20474;-78
2022/01/01 02:52:35;;;;;;;127.53;75.37;;;;;;;;;;5035887;28;20448;-79
2022/01/01 02:55:02;;;;;;;177.10;96.50;;;;;;;;;;5016460;28;20430;-79
2022/01/01 02:57:28;;;;;;;120.30;73.03;;;;;;;;;;5013946;28;20557;-79
2022/01/01 02:59:54;;;;;;;92.10;59.03;;;;;;;;;;5015287;28;21096;-79
2022/01/01 03:02:20;;;;;;;94.93;61.13;;;;;;;;;;5018578;28;20423;-79
2022/01/01 03:04:46;;;;;;;105.00;63.93;;;;;;;;;;5033466;28;20443;-79
2022/01/01 03:07:12;;;;;;;110.73;67.80;;;;;;;;;;5033205;28;21289;-79
2022/01/01 03:09:39;;;;;;;110.47;65.73;;;;;;;;;;5031963;28;21149;-79
2022/01/01 03:12:05;;;;;;;109.53;65.80;;;;;;;;;;5014565;28;20454;-79
2022/01/01 03:14:31;;;;;;;139.30;77.97;;;;;;;;;;5015196;28;20434;-79
2022/01/01 03:16:58;;;;;;;99.70;61.17;;;;;;;;;;5013423;28;20454;-79
2022/01/01 03:19:24;;;;;;;101.47;62.57;;;;;;;;;;5030752;28;20414;-78
2022/01/01 03:21:50;;;;;;;92.37;60.17;;;;;;;;;;5031554;28;20525;-78
2022/01/01 03:24:16;;;;;;;97.17;60.73;;;;;;;;;;5014175;28;21191;-78
2022/01/01 03:26:42;;;;;;;118.40;69.27;;;;;;;;;;5033503;28;20426;-78
2022/01/01 03:29:09;;;;;;;126.90;74.20;;;;;;;;;;5034576;28;20434;-78
2022/01/01 03:31:35;;;;;;;103.37;62.00;;;;;;;;;;5031906;28;20446;-78
2022/01/01 03:34:01;;;;;;;109.60;64.87;;;;;;;;;;5014451;28;21464;-79
2022/01/01 03:36:27;;;;;;;121.37;71.67;;;;;;;;;;5028540;28;20510;-78
2022/01/01 03:38:54;;;;;;;108.33;64.63;;;;;;;;;;5031940;28;20492;-79
2022/01/01 03:41:20;;;;;;;89.20;57.67;;;;;;;;;;5029676;28;21263;-79
2022/01/01 03:43:46;;;;;;;89.30;56.60;;;;;;;;;;5032738;28;20429;-78
2022/01/01 03:46:12;;;;;;;97.77;60.53;;;;;;;;;;5012951;28;20418;-78
2022/01/01 03:48:38;;;;;;;90.40;55.23;;;;;;;;;;5014445;28;20938;-78
2022/01/01 03:51:04;;;;;;;76.40;50.80;;;;;;;;;;5011344;28;21286;-78
2022/01/01 03:53:30;;;;;;;67.70;46.00;;;;;;;;;;5032907;28;20430;-79
2022/01/01 03:55:58;;;;;;;79.23;51.13;;;;;;;;;;5013080;28;20434;-78
2022/01/01 03:58:24;;;;;;;74.10;49.87;;;;;;;;;;5010695;28;20432;-78
2022/01/01 04:00:50;;;;;;;78.63;50.63;;;;;;;;;;5012049;28;21180;-78
2022/01/01 04:03:17;;;;;;;78.87;51.13;;;;;;;;;;5015641;28;20419;-78
2022/01/01 04:05:44;;;;;;;76.17;51.97;;;;;;;;;;5015183;28;20461;-78
2022/01/01 04:08:10;;;;;;;80.50;52.60;;;;;;;;;;5028716;28;20509;-79
2022/01/01 04:10:37;;;;;;;79.50;54.17;;;;;;;;;;5013775;28;20453;-79
2022/01/01 04:13:04;;;;;;;97.00;61.83;;;;;;;;;;5015864;28;20454;-78
2022/01/01 04:15:30;;;;;;;103.47;63.57;;;;;;;;;;5015136;28;20426;-78
2022/01/01 04:18:07;;;;;;;87.20;57.37;;;;;;;;;;5031049;28;20453;-79
2022/01/01 04:20:33;;;;;;;122.97;74.10;;;;;;;;;;5031409;28;20395;-79
2022/01/01 04:22:59;;;;;;;85.53;58.03;;;;;;;;;;5030189;28;20419;-78
2022/01/01 04:25:26;;;;;;;100.97;63.20;;;;;;;;;;5017484;28;21166;-78
2022/01/01 04:27:53;;;;;;;87.33;58.70;;;;;;;;;;5015566;28;21546;-78
2022/01/01 04:30:19;;;;;;;87.00;59.37;;;;;;;;;;5032411;28;21269;-78
2022/01/01 04:32:45;;;;;;;93.17;59.50;;;;;;;;;;5031048;28;20458;-78
2022/01/01 04:35:12;;;;;;;91.63;60.73;;;;;;;;;;5032287;28;20415;-78
2022/01/01 04:37:38;;;;;;;107.43;68.10;;;;;;;;;;5032472;28;20537;-78
2022/01/01 04:40:06;;;;;;;79.90;55.40;;;;;;;;;;5012886;28;20465;-78
2022/01/01 04:42:32;;;;;;;104.27;65.13;;;;;;;;;;5030669;28;20418;-78
2022/01/01 04:44:58;;;;;;;114.33;70.43;;;;;;;;;;5032655;28;20426;-78
2022/01/01 04:47:25;;;;;;;100.57;64.50;;;;;;;;;;5033994;28;20443;-78
2022/01/01 04:49:51;;;;;;;88.30;58.10;;;;;;;;;;5011698;28;20429;-78
2022/01/01 04:52:17;;;;;;;93.90;60.83;;;;;;;;;;5014184;28;21303;-78
2022/01/01 04:54:44;;;;;;;128.47;77.87;;;;;;;;;;5032340;28;20422;-78
2022/01/01 04:57:11;;;;;;;116.73;72.90;;;;;;;;;;5030669;28;20418;-78
2022/01/01 04:59:37;;;;;;;110.40;68.00;;;;;;;;;;5012768;28;20465;-78
2022/01/01 05:02:04;;;;;;;73.97;52.60;;;;;;;;;;5032070;28;20422;-79
2022/01/01 05:04:30;;;;;;;104.63;65.93;;;;;;;;;;5015675;28;21510;-79
2022/01/01 05:06:56;;;;;;;89.57;58.93;;;;;;;;;;5015436;28;20456;-79
2022/01/01 05:09:23;;;;;;;90.63;59.23;;;;;;;;;;5029586;28;20468;-78
2022/01/01 05:11:49;;;;;;;92.33;60.03;;;;;;;;;;5030428;28;20454;-79
2022/01/01 05:14:15;;;;;;;102.43;65.07;;;;;;;;;;5026366;28;20423;-78
2022/01/01 05:16:42;;;;;;;83.50;55.10;;;;;;;;;;5029835;28;20415;-78
2022/01/01 05:19:08;;;;;;;87.70;57.17;;;;;;;;;;5015484;28;20414;-79
2022/01/01 05:21:36;;;;;;;85.67;56.00;;;;;;;;;;5014974;28;20430;-78
2022/01/01 05:24:03;;;;;;;71.10;48.73;;;;;;;;;;5012240;28;20506;-78
2022/01/01 05:26:29;;;;;;;69.00;48.93;;;;;;;;;;5028482;28;20443;-78
2022/01/01 05:28:55;;;;;;;81.03;53.77;;;;;;;;;;5014389;28;20472;-78
2022/01/01 05:31:22;;;;;;;71.83;50.17;;;;;;;;;;5032007;28;21072;-78
2022/01/01 05:33:48;;;;;;;79.73;52.73;;;;;;;;;;5025429;28;20419;-78
2022/01/01 05:36:15;;;;;;;90.83;57.23;;;;;;;;;;5032587;28;20567;-78
2022/01/01 05:38:42;;;;;;;77.33;51.73;;;;;;;;;;5017305;28;20426;-78
2022/01/01 05:41:08;;;;;;;74.20;50.53;;;;;;;;;;5035371;28;21123;-78
2022/01/01 05:43:34;;;;;;;124.20;74.47;;;;;;;;;;5033960;28;20407;-78
2022/01/01 05:46:00;;;;;;;121.53;72.13;;;;;;;;;;5032787;28;21039;-78
2022/01/01 05:48:26;;;;;;;82.03;55.40;;;;;;;;;;5032066;28;20509;-78
2022/01/01 05:50:53;;;;;;;83.63;56.17;;;;;;;;;;5035491;28;21123;-78
2022/01/01 05:53:20;;;;;;;116.37;68.37;;;;;;;;;;5035162;28;21395;-78
2022/01/01 05:55:46;;;;;;;73.70;50.90;;;;;;;;;;5033432;28;20493;-78
2022/01/01 05:58:12;;;;;;;102.30;65.20;;;;;;;;;;5019303;28;20431;-78
2022/01/01 06:00:39;;;;;;;80.97;54.37;;;;;;;;;;5033930;28;20448;-79
2022/01/01 06:03:05;;;;;;;74.17;49.53;;;;;;;;;;5035980;28;21250;-78
2022/01/01 06:05:31;;;;;;;81.17;54.43;;;;;;;;;;5033099;28;20414;-78
2022/01/01 06:07:58;;;;;;;81.53;54.03;;;;;;;;;;5016667;28;20422;-79
2022/01/01 06:10:25;;;;;;;92.93;59.13;;;;;;;;;;5033510;28;20546;-79
2022/01/01 06:12:51;;;;;;;108.17;63.37;;;;;;;;;;5033150;28;20446;-78
2022/01/01 06:15:18;;;;;;;99.77;62.13;;;;;;;;;;5014533;28;20522;-78
2022/01/01 06:17:44;;;;;;;111.60;64.60;;;;;;;;;;5015926;28;20839;-79
2022/01/01 06:20:10;;;;;;;99.27;60.87;;;;;;;;;;5014095;28;20420;-78
2022/01/01 06:22:37;;;;;;;106.23;65.30;;;;;;;;;;5032074;28;20430;-78
2022/01/01 06:25:03;;;;;;;102.30;65.43;;;;;;;;;;5034948;28;20428;-78
2022/01/01 06:27:29;;;;;;;120.00;70.47;;;;;;;;;;5034066;28;20435;-79
2022/01/01 06:29:56;;;;;;;124.97;74.43;;;;;;;;;;5030715;28;21321;-79
2022/01/01 06:32:22;;;;;;;119.43;71.97;;;;;;;;;;5030731;28;20485;-78
2022/01/01 06:34:48;;;;;;;110.07;66.90;;;;;;;;;;5016943;28;20414;-78
2022/01/01 06:37:14;;;;;;;114.37;68.33;;;;;;;;;;5033942;28;20423;-78
2022/01/01 06:39:40;;;;;;;125.63;73.87;;;;;;;;;;5033117;28;20442;-78
2022/01/01 06:42:06;;;;;;;117.43;70.67;;;;;;;;;;5017551;28;20495;-78
2022/01/01 06:44:33;;;;;;;124.10;73.43;;;;;;;;;;5033926;28;20433;-78
2022/01/01 06:46:59;;;;;;;119.23;70.63;;;;;;;;;;5032453;28;20457;-78
2022/01/01 06:49:25;;;;;;;137.97;81.33;;;;;;;;;;5020527;28;20449;-78
2022/01/01 06:51:51;;;;;;;116.33;69.23;;;;;;;;;;5035219;28;21175;-78
2022/01/01 06:54:17;;;;;;;151.10;87.80;;;;;;;;;;5033611;28;20422;-78
2022/01/01 06:56:43;;;;;;;130.90;79.67;;;;;;;;;;5033309;28;20424;-78
2022/01/01 06:59:09;;;;;;;133.40;75.63;;;;;;;;;;5030802;28;20421;-78
2022/01/01 07:01:36;;;;;;;167.73;95.90;;;;;;;;;;5032185;28;20442;-78
2022/01/01 07:04:03;;;;;;;128.57;79.57;;;;;;;;;;5014162;28;20422;-78
2022/01/01 07:06:30;;;;;;;167.30;94.10;;;;;;;;;;5033357;28;21109;-79
2022/01/01 07:08:56;;;;;;;126.13;75.90;;;;;;;;;;5026026;28;21287;-78
2022/01/01 07:11:22;;;;;;;127.20;76.53;;;;;;;;;;5017633;28;20452;-79
2022/01/01 07:13:48;;;;;;;112.83;68.40;;;;;;;;;;5035042;28;21247;-80
2022/01/01 07:16:14;;;;;;;143.70;81.23;;;;;;;;;;5012810;28;20529;-78
2022/01/01 07:18:40;;;;;;;121.37;72.13;;;;;;;;;;5013643;28;20433;-78
2022/01/01 07:21:06;;;;;;;111.23;67.90;;;;;;;;;;5014281;28;20481;-79
2022/01/01 07:23:32;;;;;;;102.40;66.03;;;;;;;;;;5034096;28;21345;-80
2022/01/01 07:25:58;;;;;;;99.27;61.00;;;;;;;;;;5012219;28;21360;-80
2022/01/01 07:28:24;;;;;;;144.00;83.33;;;;;;;;;;5015914;28;20423;-79
2022/01/01 07:30:50;;;;;;;123.80;72.40;;;;;;;;;;5014362;28;20425;-78
2022/01/01 07:33:17;;;;;;;225.70;102.30;;;;;;;;;;5033758;28;20446;-79
2022/01/01 07:35:43;;;;;;;304.30;117.97;;;;;;;;;;5034767;28;20411;-79
2022/01/01 07:38:10;;;;;;;336.63;123.57;;;;;;;;;;5012463;28;20430;-79
2022/01/01 07:40:36;;;;;;;304.10;118.23;;;;;;;;;;5013863;28;20423;-78
2022/01/01 07:43:03;;;;;;;240.07;111.10;;;;;;;;;;5033286;28;20446;-78
2022/01/01 07:45:29;;;;;;;419.30;132.47;;;;;;;;;;5030521;28;21252;-78
2022/01/01 07:47:55;;;;;;;295.27;107.73;;;;;;;;;;5031539;28;20426;-78
2022/01/01 07:50:21;;;;;;;269.37;102.93;;;;;;;;;;5031530;28;20415;-78
2022/01/01 07:52:47;;;;;;;268.70;114.60;;;;;;;;;;5032455;28;20888;-79
2022/01/01 07:55:13;;;;;;;208.47;99.70;;;;;;;;;;5031324;28;21292;-78
2022/01/01 07:57:39;;;;;;;146.43;77.63;;;;;;;;;;5029405;28;21054;-79
2022/01/01 08:00:07;;;;;;;241.53;97.33;;;;;;;;;;5014389;28;20429;-79
2022/01/01 08:02:38;;;;;;;142.10;78.27;;;;;;;;;;5033249;28;20487;-79
2022/01/01 08:05:04;;;;;;;121.00;71.93;;;;;;;;;;5013123;28;20430;-79
2022/01/01 08:07:30;;;;;;;114.27;66.83;;;;;;;;;;5033649;28;20427;-79
2022/01/01 08:09:57;;;;;;;113.90;66.90;;;;;;;;;;5014984;28;20419;-80
2022/01/01 08:12:23;;;;;;;102.93;61.63;;;;;;;;;;5033676;28;20461;-79
2022/01/01 08:14:49;;;;;;;189.20;86.10;;;;;;;;;;5028513;28;20654;-79
2022/01/01 08:17:15;;;;;;;98.47;59.23;;;;;;;;;;5017659;28;20410;-79
2022/01/01 08:19:42;;;;;;;178.30;81.87;;;;;;;;;;5032576;28;20426;-79
2022/01/01 08:22:10;;;;;;;181.87;81.77;;;;;;;;;;5014029;28;20415;-79
2022/01/01 08:24:36;;;;;;;131.17;68.17;;;;;;;;;;5014959;28;20533;-80
2022/01/01 08:27:02;;;;;;;94.50;57.60;;;;;;;;;;5032688;28;20422;-79
2022/01/01 08:29:29;;;;;;;99.03;57.63;;;;;;;;;;5014976;28;20464;-79
2022/01/01 08:31:56;;;;;;;149.37;71.50;;;;;;;;;;5030754;28;20466;-79
2022/01/01 08:34:22;;;;;;;156.23;72.83;;;;;;;;;;5027345;28;20419;-79
2022/01/01 08:36:48;;;;;;;203.13;79.33;;;;;;;;;;5010215;28;20510;-79
2022/01/01 08:39:15;;;;;;;148.23;68.90;;;;;;;;;;5015152;28;20418;-79
2022/01/01 08:41:42;;;;;;;140.13;69.97;;;;;;;;;;5030625;28;20418;-79
2022/01/01 08:44:08;;;;;;;140.33;69.30;;;;;;;;;;5029305;28;20430;-78
2022/01/01 08:46:34;;;;;;;169.33;71.27;;;;;;;;;;5012859;28;20518;-78
2022/01/01 08:49:02;;;;;;;106.00;58.67;;;;;;;;;;5030667;28;20415;-78
2022/01/01 08:51:29;;;;;;;146.47;68.20;;;;;;;;;;5014038;28;20438;-78
2022/01/01 08:53:55;;;;;;;121.80;63.53;;;;;;;;;;5030166;28;20431;-78
2022/01/01 08:56:21;;;;;;;109.50;59.07;;;;;;;;;;5029142;28;20496;-78
2022/01/01 08:58:47;;;;;;;106.33;57.23;;;;;;;;;;5012040;28;20408;-78
2022/01/01 09:01:13;;;;;;;78.17;48.57;;;;;;;;;;5032138;28;20427;-78
2022/01/01 09:03:41;;;;;;;86.53;51.60;;;;;;;;;;5015703;28;21365;-78
2022/01/01 09:06:07;;;;;;;126.83;60.87;;;;;;;;;;5030064;28;20429;-78
2022/01/01 09:08:34;;;;;;;130.07;60.63;;;;;;;;;;5011182;28;21351;-78
2022/01/01 09:11:00;;;;;;;112.93;56.37;;;;;;;;;;5029894;28;20458;-78
2022/01/01 09:13:26;;;;;;;146.00;64.13;;;;;;;;;;5032193;28;20546;-78
2022/01/01 09:15:52;;;;;;;230.10;76.07;;;;;;;;;;5024687;28;20430;-78
2022/01/01 09:18:18;;;;;;;323.90;89.87;;;;;;;;;;5017557;28;20414;-79
2022/01/01 09:20:45;;;;;;;99.70;55.27;;;;;;;;;;5012596;28;20423;-78
2022/01/01 09:23:13;;;;;;;240.20;73.73;;;;;;;;;;5029425;28;20435;-78
2022/01/01 09:25:39;;;;;;;280.37;84.30;;;;;;;;;;5009459;28;21468;-78
2022/01/01 09:28:05;;;;;;;161.77;68.67;;;;;;;;;;5027050;28;20457;-78
2022/01/01 09:30:31;;;;;;;262.77;71.17;;;;;;;;;;5030471;28;20506;-79
2022/01/01 09:32:57;;;;;;;235.77;69.33;;;;;;;;;;5033477;28;20457;-79
2022/01/01 09:35:23;;;;;;;221.83;71.27;;;;;;;;;;5017594;28;21230;-79
2022/01/01 09:37:49;;;;;;;141.70;56.70;;;;;;;;;;5031772;28;20529;-79
2022/01/01 09:40:16;;;;;;;215.87;66.93;;;;;;;;;;5030615;28;20422;-78
2022/01/01 09:42:43;;;;;;;179.40;68.63;;;;;;;;;;5033161;28;20441;-79
2022/01/01 09:45:10;;;;;;;179.07;66.53;;;;;;;;;;5030897;28;21306;-79
2022/01/01 09:47:39;;;;;;;242.90;71.73;;;;;;;;;;5010460;28;20442;-78
2022/01/01 09:50:06;;;;;;;91.50;51.93;;;;;;;;;;5010178;28;20427;-78
2022/01/01 09:52:33;;;;;;;80.27;47.73;;;;;;;;;;5028477;28;20454;-78
2022/01/01 09:54:59;;;;;;;192.53;63.27;;;;;;;;;;5030991;28;20523;-78
2022/01/01 09:57:25;;;;;;;180.47;56.73;;;;;;;;;;5028248;28;20489;-79
2022/01/01 09:59:51;;;;;;;125.07;53.13;;;;;;;;;;5029105;28;20446;-78
2022/01/01 10:02:17;;;;;;;251.13;63.10;;;;;;;;;;5029519;28;20413;-78
2022/01/01 10:04:52;;;;;;;81.23;46.57;;;;;;;;;;5015328;28;20418;-78
2022/01/01 10:07:18;;;;;;;93.37;48.10;;;;;;;;;;5014936;28;20425;-79
2022/01/01 10:09:44;;;;;;;82.23;48.30;;;;;;;;;;5012865;28;20511;-79
2022/01/01 10:12:15;;;;;;;155.77;56.80;;;;;;;;;;5028876;28;20488;-78
2022/01/01 10:14:42;;;;;;;112.27;52.80;;;;;;;;;;5012296;28;20993;-79
2022/01/01 10:17:13;;;;;;;75.50;45.87;;;;;;;;;;5012090;28;20426;-79
2022/01/01 10:19:40;;;;;;;149.90;55.37;;;;;;;;;;5032321;28;20426;-78
2022/01/01 10:22:06;;;;;;;79.23;49.70;;;;;;;;;;5014218;28;20486;-77
2022/01/01 10:27:43;;;;;;;83.87;49.13;;;;;;;;;;4975799;28;20423;-78
2022/01/01 10:30:30;;;;;;;130.20;51.90;;;;;;;;;;5031411;28;20495;-78
2022/01/01 10:33:13;;;;;;;119.40;50.17;;;;;;;;;;5020452;28;20525;-79
2022/01/01 10:35:42;;;;;;;211.03;61.50;;;;;;;;;;5031692;28;20534;-79
2022/01/01 10:38:12;;;;;;;85.60;46.53;;;;;;;;;;5032355;28;20419;-78
2022/01/01 10:40:38;;;;;;;77.40;44.87;;;;;;;;;;5012827;28;21108;-78
2022/01/01 10:43:04;;;;;;;195.67;63.13;;;;;;;;;;5029888;28;20431;-78
2022/01/01 10:45:41;;;;;;;74.27;44.50;;;;;;;;;;5025810;28;20506;-79
2022/01/01 10:51:04;;;;;;;154.80;58.87;;;;;;;;;;5013123;28;20661;-80
2022/01/01 10:53:30;;;;;;;178.60;63.93;;;;;;;;;;5014112;28;20454;-80
2022/01/01 10:56:01;;;;;;;183.93;62.87;;;;;;;;;;5016120;28;20541;-81
2022/01/01 10:58:31;;;;;;;113.83;51.90;;;;;;;;;;5016255;28;20441;-82
2022/01/01 11:01:01;;;;;;;70.30;43.73;;;;;;;;;;5013714;28;20415;-81
2022/01/01 11:03:28;;;;;;;79.07;47.30;;;;;;;;;;5027134;28;20430;-81
2022/01/01 11:06:11;;;;;;;112.83;52.90;;;;;;;;;;5015872;28;20527;-81
2022/01/01 11:08:38;;;;;;;132.67;53.97;;;;;;;;;;5031207;28;20426;-81
2022/01/01 11:11:04;;;;;;;77.60;46.77;;;;;;;;;;5030356;28;20430;-82
2022/01/01 11:13:32;;;;;;;121.93;52.83;;;;;;;;;;5019116;28;20568;-80
2022/01/01 11:15:58;;;;;;;140.87;55.97;;;;;;;;;;5030673;28;20418;-79
2022/01/01 11:18:25;;;;;;;140.03;53.27;;;;;;;;;;5011541;28;20516;-80
2022/01/01 11:20:51;;;;;;;97.77;48.47;;;;;;;;;;5032993;28;21032;-80
2022/01/01 11:23:19;;;;;;;74.13;43.77;;;;;;;;;;5032645;28;20430;-80
2022/01/01 11:25:45;;;;;;;146.13;56.33;;;;;;;;;;5033204;28;20461;-80
2022/01/01 11:28:13;;;;;;;90.80;50.23;;;;;;;;;;5033084;28;20521;-80
2022/01/01 11:30:45;;;;;;;90.73;46.13;;;;;;;;;;5029973;28;20419;-80
2022/01/01 11:33:13;;;;;;;102.37;53.80;;;;;;;;;;5009960;28;20533;-80
2022/01/01 11:35:44;;;;;;;157.13;63.17;;;;;;;;;;5013812;28;20426;-80
2022/01/01 11:38:16;;;;;;;167.43;61.60;;;;;;;;;;5011689;28;20429;-80
2022/01/01 11:40:48;;;;;;;210.97;64.33;;;;;;;;;;5032287;28;20407;-79
2022/01/01 11:43:35;;;;;;;127.70;58.43;;;;;;;;;;5032960;28;20415;-80
2022/01/01 11:46:04;;;;;;;100.33;53.37;;;;;;;;;;5011329;28;21420;-81
2022/01/01 11:48:32;;;;;;;99.93;54.73;;;;;;;;;;5031529;28;20506;-81
2022/01/01 11:51:18;;;;;;;123.00;59.67;;;;;;;;;;5029705;28;20939;-78
2022/01/01 11:54:02;;;;;;;153.13;63.33;;;;;;;;;;5031016;28;20442;-79
2022/01/01 11:56:52;;;;;;;129.97;63.67;;;;;;;;;;5015134;28;20460;-80
2022/01/01 11:59:37;;;;;;;154.67;66.77;;;;;;;;;;5024635;28;20421;-80
2022/01/01 12:02:12;;;;;;;96.47;54.97;;;;;;;;;;5013213;28;20538;-80
2022/01/01 12:04:43;;;;;;;116.53;62.17;;;;;;;;;;5026201;28;20429;-80
2022/01/01 12:07:13;;;;;;;93.20;54.90;;;;;;;;;;5008073;28;20426;-79
2022/01/01 12:09:58;;;;;;;111.67;59.63;;;;;;;;;;5010486;28;20964;-79
2022/01/01 12:12:37;;;;;;;140.57;65.60;;;;;;;;;;5012018;28;20442;-80
2022/01/01 12:15:05;;;;;;;173.00;70.50;;;;;;;;;;5030825;28;20434;-79
2022/01/01 12:17:44;;;;;;;175.60;67.77;;;;;;;;;;5010908;28;20473;-80
2022/01/01 12:20:10;;;;;;;93.80;55.63;;;;;;;;;;5011492;28;20486;-80
2022/01/01 12:22:38;;;;;;;181.57;67.87;;;;;;;;;;5026847;28;20453;-81
2022/01/01 12:25:04;;;;;;;119.30;56.33;;;;;;;;;;5009883;28;20469;-81
2022/01/01 12:27:40;;;;;;;154.13;64.23;;;;;;;;;;5013113;28;21145;-79
2022/01/01 12:30:06;;;;;;;163.80;65.13;;;;;;;;;;5009584;28;20436;-80
2022/01/01 12:32:36;;;;;;;152.13;64.50;;;;;;;;;;5010418;28;20458;-81
2022/01/01 12:35:07;;;;;;;99.93;57.70;;;;;;;;;;5026149;28;20415;-79
2022/01/01 12:37:37;;;;;;;90.50;52.93;;;;;;;;;;5027073;28;20534;-80
2022/01/01 12:40:06;;;;;;;171.43;66.73;;;;;;;;;;5009137;28;20429;-80
2022/01/01 12:42:33;;;;;;;143.97;65.40;;;;;;;;;;5010565;28;21280;-80
2022/01/01 12:45:00;;;;;;;135.97;61.40;;;;;;;;;;5012498;28;20932;-80
2022/01/01 12:47:30;;;;;;;118.10;59.67;;;;;;;;;;5013276;28;20430;-81
2022/01/01 12:50:00;;;;;;;193.60;67.63;;;;;;;;;;5011742;28;20437;-80
2022/01/01 12:52:28;;;;;;;89.20;53.13;;;;;;;;;;5011326;28;20446;-80
2022/01/01 12:54:57;;;;;;;90.93;54.07;;;;;;;;;;5013345;28;20423;-80
2022/01/01 12:57:23;;;;;;;93.43;54.70;;;;;;;;;;5027033;28;20458;-80
2022/01/01 12:59:49;;;;;;;152.07;67.63;;;;;;;;;;5025379;28;20843;-80
2022/01/01 13:02:15;;;;;;;83.13;52.60;;;;;;;;;;5027381;28;20537;-80
2022/01/01 13:04:42;;;;;;;118.13;56.53;;;;;;;;;;5027891;28;20438;-80
2022/01/01 13:07:08;;;;;;;87.10;52.83;;;;;;;;;;5031722;28;20418;-81
2022/01/01 13:09:34;;;;;;;97.10;53.63;;;;;;;;;;5014398;28;20418;-80
2022/01/01 13:12:09;;;;;;;78.33;49.77;;;;;;;;;;5012536;28;20446;-78
2022/01/01 13:14:36;;;;;;;79.17;47.40;;;;;;;;;;5012640;28;20784;-79
2022/01/01 13:17:03;;;;;;;147.33;64.33;;;;;;;;;;5026584;28;20449;-81
2022/01/01 13:19:34;;;;;;;76.40;46.13;;;;;;;;;;5013754;28;20431;-80
2022/01/01 13:22:00;;;;;;;73.77;47.23;;;;;;;;;;5010005;28;21171;-80
2022/01/01 13:24:47;;;;;;;79.33;45.90;;;;;;;;;;5009518;28;20439;-81
2022/01/01 13:27:48;;;;;;;84.93;44.70;;;;;;;;;;5025261;28;20824;-81
2022/01/01 13:30:14;;;;;;;109.33;54.17;;;;;;;;;;4945482;28;20550;-81
2022/01/01 13:32:40;;;;;;;210.00;67.77;;;;;;;;;;5008639;28;20458;-81
2022/01/01 13:35:06;;;;;;;216.03;74.03;;;;;;;;;;5011287;28;20443;-81
2022/01/01 13:37:33;;;;;;;91.13;51.97;;;;;;;;;;5031176;28;20426;-82
2022/01/01 13:39:59;;;;;;;100.33;54.37;;;;;;;;;;5030022;28;20453;-81
2022/01/01 13:42:25;;;;;;;84.97;48.93;;;;;;;;;;5010303;28;21474;-82
2022/01/01 13:44:51;;;;;;;82.40;49.87;;;;;;;;;;5007855;28;20431;-81
2022/01/01 13:47:31;;;;;;;93.03;52.63;;;;;;;;;;5009412;28;20450;-81
2022/01/01 13:49:58;;;;;;;84.20;47.70;;;;;;;;;;5012123;28;20473;-81
2022/01/01 13:52:26;;;;;;;84.27;48.63;;;;;;;;;;5008954;28;20457;-80
2022/01/01 13:55:02;;;;;;;86.63;48.57;;;;;;;;;;5009440;28;20433;-81
2022/01/01 13:57:29;;;;;;;84.70;51.77;;;;;;;;;;5031432;28;20983;-81
2022/01/01 13:59:56;;;;;;;88.87;52.67;;;;;;;;;;5014551;28;20434;-81
2022/01/01 14:02:23;;;;;;;83.33;49.17;;;;;;;;;;5013403;28;21422;-82
2022/01/01 14:04:50;;;;;;;105.83;56.87;;;;;;;;;;5029421;28;20550;-82
2022/01/01 14:07:17;;;;;;;94.33;50.43;;;;;;;;;;5024766;28;20426;-82
2022/01/01 14:10:11;;;;;;;;;;;;;;;;;;;;;
2022/01/01 14:12:45;;;;;;;100.93;53.67;;;;;;;;;;5013846;28;20474;-81
2022/01/01 14:15:15;;;;;;;102.00;51.37;;;;;;;;;;5012973;28;21223;-81
2022/01/01 14:17:58;;;;;;;112.00;55.90;;;;;;;;;;5024986;28;20441;-80
2022/01/01 14:20:27;;;;;;;78.60;49.63;;;;;;;;;;5025078;28;21038;-80